sensor_id;sensor_type;location;lat;lon;timestamp;pressure;altitude;pressure_sealevel;temperature;humidity
39487;BME280;25173;50.430;18.926;2023-09-07T00:01:20;99093.47;;;16.67;62.71
39487;BME280;25173;50.430;18.926;2023-09-07T00:04:21;99106.13;;;16.68;62.76
39487;BME280;25173;50.430;18.926;2023-09-07T00:07:23;99104.19;;;16.69;62.66
39487;BME280;25173;50.430;18.926;2023-09-07T00:10:37;99100.59;;;16.74;62.53
39487;BME280;25173;50.430;18.926;2023-09-07T00:13:41;99093.72;;;16.71;62.48
39487;BME280;25173;50.430;18.926;2023-09-07T00:16:45;99096.19;;;16.73;62.32
39487;BME280;25173;50.430;18.926;2023-09-07T00:19:46;99096.19;;;16.73;62.19
39487;BME280;25173;50.430;18.926;2023-09-07T00:22:55;99089.06;;;16.72;62.06
39487;BME280;25173;50.430;18.926;2023-09-07T00:25:56;99090.16;;;16.71;61.91
39487;BME280;25173;50.430;18.926;2023-09-07T00:28:57;99096.22;;;16.67;61.77
39487;BME280;25173;50.430;18.926;2023-09-07T00:32:00;99096.84;;;16.64;61.74
39487;BME280;25173;50.430;18.926;2023-09-07T00:35:01;99097.97;;;16.58;61.67
39487;BME280;25173;50.430;18.926;2023-09-07T00:38:06;99098.31;;;16.52;61.86
39487;BME280;25173;50.430;18.926;2023-09-07T00:41:07;99100.81;;;16.48;62.09
39487;BME280;25173;50.430;18.926;2023-09-07T00:44:15;99109.94;;;16.44;62.04
39487;BME280;25173;50.430;18.926;2023-09-07T00:47:17;99105.81;;;16.41;61.99
39487;BME280;25173;50.430;18.926;2023-09-07T00:50:19;99103.63;;;16.38;62.15
39487;BME280;25173;50.430;18.926;2023-09-07T00:53:26;99106.97;;;16.35;62.21
39487;BME280;25173;50.430;18.926;2023-09-07T00:56:28;99112.47;;;16.35;62.15
39487;BME280;25173;50.430;18.926;2023-09-07T00:59:29;99107.81;;;16.30;61.98
39487;BME280;25173;50.430;18.926;2023-09-07T01:02:34;99101.53;;;16.30;61.92
39487;BME280;25173;50.430;18.926;2023-09-07T01:09:00;99105.94;;;16.26;62.25
39487;BME280;25173;50.430;18.926;2023-09-07T01:12:14;99108.22;;;16.19;62.31
39487;BME280;25173;50.430;18.926;2023-09-07T01:15:24;99109.91;;;16.15;62.38
39487;BME280;25173;50.430;18.926;2023-09-07T01:18:25;99114.31;;;16.11;62.76
39487;BME280;25173;50.430;18.926;2023-09-07T01:21:26;99110.53;;;16.07;63.06
39487;BME280;25173;50.430;18.926;2023-09-07T01:24:32;99103.38;;;16.06;63.39
39487;BME280;25173;50.430;18.926;2023-09-07T01:27:35;99106.13;;;16.06;63.59
39487;BME280;25173;50.430;18.926;2023-09-07T01:30:36;99105.25;;;16.10;63.32
39487;BME280;25173;50.430;18.926;2023-09-07T01:33:39;99104.16;;;16.11;63.42
39487;BME280;25173;50.430;18.926;2023-09-07T01:36:43;99101.13;;;16.13;63.67
39487;BME280;25173;50.430;18.926;2023-09-07T01:39:50;99093.16;;;16.11;63.51
39487;BME280;25173;50.430;18.926;2023-09-07T01:42:54;99098.94;;;16.10;63.22
39487;BME280;25173;50.430;18.926;2023-09-07T01:45:55;99105.84;;;16.07;63.23
39487;BME280;25173;50.430;18.926;2023-09-07T01:49:07;99097.34;;;16.04;63.19
39487;BME280;25173;50.430;18.926;2023-09-07T01:52:10;99099.03;;;16.00;63.08
39487;BME280;25173;50.430;18.926;2023-09-07T01:55:11;99099.31;;;15.98;63.01
39487;BME280;25173;50.430;18.926;2023-09-07T01:58:15;99098.50;;;15.98;62.83
39487;BME280;25173;50.430;18.926;2023-09-07T02:01:29;99104.00;;;15.98;62.59
39487;BME280;25173;50.430;18.926;2023-09-07T02:04:36;99099.38;;;15.93;62.69
39487;BME280;25173;50.430;18.926;2023-09-07T02:07:49;99099.66;;;15.86;62.80
39487;BME280;25173;50.430;18.926;2023-09-07T02:10:56;99102.16;;;15.83;63.55
39487;BME280;25173;50.430;18.926;2023-09-07T02:13:57;99095.56;;;15.84;63.61
39487;BME280;25173;50.430;18.926;2023-09-07T02:17:01;99095.81;;;15.87;63.33
39487;BME280;25173;50.430;18.926;2023-09-07T02:20:06;99095.78;;;15.93;63.43
39487;BME280;25173;50.430;18.926;2023-09-07T02:23:11;99093.03;;;15.93;63.03
39487;BME280;25173;50.430;18.926;2023-09-07T02:26:11;99088.38;;;15.93;63.47
39487;BME280;25173;50.430;18.926;2023-09-07T02:29:12;99086.75;;;15.87;63.27
39487;BME280;25173;50.430;18.926;2023-09-07T02:32:13;99085.97;;;15.81;63.49
39487;BME280;25173;50.430;18.926;2023-09-07T02:35:14;99084.91;;;15.77;63.00
39487;BME280;25173;50.430;18.926;2023-09-07T02:38:15;99082.19;;;15.72;63.11
39487;BME280;25173;50.430;18.926;2023-09-07T02:41:15;99085.75;;;15.73;63.31
39487;BME280;25173;50.430;18.926;2023-09-07T02:44:16;99080.53;;;15.71;63.07
39487;BME280;25173;50.430;18.926;2023-09-07T02:47:17;99082.50;;;15.71;62.97
39487;BME280;25173;50.430;18.926;2023-09-07T02:50:19;99078.38;;;15.68;63.00
39487;BME280;25173;50.430;18.926;2023-09-07T02:53:23;99088.28;;;15.64;62.68
39487;BME280;25173;50.430;18.926;2023-09-07T02:56:24;99079.53;;;15.62;62.77
39487;BME280;25173;50.430;18.926;2023-09-07T02:59:25;99085.56;;;15.59;62.54
39487;BME280;25173;50.430;18.926;2023-09-07T03:02:27;99084.75;;;15.59;62.77
39487;BME280;25173;50.430;18.926;2023-09-07T03:05:28;99090.22;;;15.59;62.88
39487;BME280;25173;50.430;18.926;2023-09-07T03:08:29;99085.84;;;15.58;62.84
39487;BME280;25173;50.430;18.926;2023-09-07T03:11:30;99082.88;;;15.54;63.30
39487;BME280;25173;50.430;18.926;2023-09-07T03:14:35;99080.63;;;15.51;63.25
39487;BME280;25173;50.430;18.926;2023-09-07T03:17:36;99078.22;;;15.44;63.46
39487;BME280;25173;50.430;18.926;2023-09-07T03:20:37;99075.22;;;15.41;63.55
39487;BME280;25173;50.430;18.926;2023-09-07T03:23:39;99083.75;;;15.39;63.96
39487;BME280;25173;50.430;18.926;2023-09-07T03:26:45;99076.88;;;15.37;63.98
39487;BME280;25173;50.430;18.926;2023-09-07T03:29:46;99084.31;;;15.31;63.91
39487;BME280;25173;50.430;18.926;2023-09-07T03:32:47;99087.09;;;15.26;64.02
39487;BME280;25173;50.430;18.926;2023-09-07T03:35:47;99087.38;;;15.20;64.00
39487;BME280;25173;50.430;18.926;2023-09-07T03:38:48;99086.56;;;15.19;64.14
39487;BME280;25173;50.430;18.926;2023-09-07T03:41:49;99094.00;;;15.19;64.31
39487;BME280;25173;50.430;18.926;2023-09-07T03:44:50;99091.53;;;15.17;64.30
39487;BME280;25173;50.430;18.926;2023-09-07T03:47:51;99092.34;;;15.12;64.31
39487;BME280;25173;50.430;18.926;2023-09-07T03:50:52;99095.69;;;15.09;64.40
39487;BME280;25173;50.430;18.926;2023-09-07T03:53:53;99097.88;;;15.07;64.54
39487;BME280;25173;50.430;18.926;2023-09-07T03:56:53;99095.13;;;15.07;64.75
39487;BME280;25173;50.430;18.926;2023-09-07T03:59:55;99107.47;;;15.05;64.92
39487;BME280;25173;50.430;18.926;2023-09-07T04:02:56;99106.09;;;15.07;65.16
39487;BME280;25173;50.430;18.926;2023-09-07T04:05:56;99106.94;;;15.08;65.07
39487;BME280;25173;50.430;18.926;2023-09-07T04:08:57;99115.13;;;15.13;65.09
39487;BME280;25173;50.430;18.926;2023-09-07T04:11:58;99110.19;;;15.15;65.07
39487;BME280;25173;50.430;18.926;2023-09-07T04:15:02;99114.00;;;15.19;65.05
39487;BME280;25173;50.430;18.926;2023-09-07T04:18:03;99113.19;;;15.24;64.56
39487;BME280;25173;50.430;18.926;2023-09-07T04:21:05;99108.50;;;15.24;64.85
39487;BME280;25173;50.430;18.926;2023-09-07T04:24:06;99113.69;;;15.31;64.88
39487;BME280;25173;50.430;18.926;2023-09-07T04:27:07;99117.50;;;15.35;64.72
39487;BME280;25173;50.430;18.926;2023-09-07T04:30:09;99110.41;;;15.34;64.64
39487;BME280;25173;50.430;18.926;2023-09-07T04:33:11;99112.84;;;15.35;64.77
39487;BME280;25173;50.430;18.926;2023-09-07T04:36:14;99116.41;;;15.36;64.99
39487;BME280;25173;50.430;18.926;2023-09-07T04:39:17;99122.44;;;15.38;64.75
39487;BME280;25173;50.430;18.926;2023-09-07T04:42:19;99113.66;;;15.41;65.27
39487;BME280;25173;50.430;18.926;2023-09-07T04:45:20;99116.09;;;15.47;65.48
39487;BME280;25173;50.430;18.926;2023-09-07T04:48:20;99118.78;;;15.58;65.55
39487;BME280;25173;50.430;18.926;2023-09-07T04:51:21;99111.59;;;15.67;65.21
39487;BME280;25173;50.430;18.926;2023-09-07T04:54:23;99107.44;;;15.74;65.09
39487;BME280;25173;50.430;18.926;2023-09-07T04:57:23;99111.78;;;15.85;65.17
39487;BME280;25173;50.430;18.926;2023-09-07T05:00:24;99111.16;;;15.93;65.14
39487;BME280;25173;50.430;18.926;2023-09-07T05:03:25;99113.00;;;16.03;64.99
39487;BME280;25173;50.430;18.926;2023-09-07T05:06:25;99111.00;;;16.14;65.12
39487;BME280;25173;50.430;18.926;2023-09-07T05:09:26;99122.44;;;16.26;64.99
39487;BME280;25173;50.430;18.926;2023-09-07T05:12:29;99122.88;;;16.38;65.07
39487;BME280;25173;50.430;18.926;2023-09-07T05:15:30;99115.91;;;16.51;65.07
39487;BME280;25173;50.430;18.926;2023-09-07T05:18:30;99125.44;;;16.63;64.77
39487;BME280;25173;50.430;18.926;2023-09-07T05:21:31;99122.81;;;16.77;64.64
39487;BME280;25173;50.430;18.926;2023-09-07T05:24:32;99127.94;;;16.89;64.87
39487;BME280;25173;50.430;18.926;2023-09-07T05:27:34;99121.19;;;17.00;64.89
39487;BME280;25173;50.430;18.926;2023-09-07T05:30:35;99132.94;;;17.11;64.79
39487;BME280;25173;50.430;18.926;2023-09-07T05:33:36;99133.31;;;17.23;64.77
39487;BME280;25173;50.430;18.926;2023-09-07T05:36:37;99136.78;;;17.33;64.76
39487;BME280;25173;50.430;18.926;2023-09-07T05:39:38;99141.31;;;17.43;64.64
39487;BME280;25173;50.430;18.926;2023-09-07T05:42:38;99137.91;;;17.51;64.76
39487;BME280;25173;50.430;18.926;2023-09-07T05:45:40;99138.66;;;17.62;64.90
39487;BME280;25173;50.430;18.926;2023-09-07T05:48:42;99145.06;;;17.76;64.69
39487;BME280;25173;50.430;18.926;2023-09-07T05:51:43;99149.81;;;17.89;64.63
39487;BME280;25173;50.430;18.926;2023-09-07T05:54:43;99150.72;;;18.03;64.57
39487;BME280;25173;50.430;18.926;2023-09-07T05:57:44;99136.50;;;18.15;64.65
39487;BME280;25173;50.430;18.926;2023-09-07T06:00:46;99150.84;;;18.31;65.09
39487;BME280;25173;50.430;18.926;2023-09-07T06:03:47;99145.06;;;18.46;65.13
39487;BME280;25173;50.430;18.926;2023-09-07T06:06:49;99144.03;;;18.60;64.89
39487;BME280;25173;50.430;18.926;2023-09-07T06:09:50;99161.13;;;18.76;64.78
39487;BME280;25173;50.430;18.926;2023-09-07T06:12:50;99161.16;;;18.90;64.82
39487;BME280;25173;50.430;18.926;2023-09-07T06:15:51;99162.50;;;19.06;64.69
39487;BME280;25173;50.430;18.926;2023-09-07T06:18:52;99164.97;;;19.21;64.39
39487;BME280;25173;50.430;18.926;2023-09-07T06:21:53;99164.16;;;19.34;64.01
39487;BME280;25173;50.430;18.926;2023-09-07T06:24:54;99169.75;;;19.48;64.19
39487;BME280;25173;50.430;18.926;2023-09-07T06:27:55;99167.78;;;19.62;64.14
39487;BME280;25173;50.430;18.926;2023-09-07T06:30:56;99170.53;;;19.76;63.95
39487;BME280;25173;50.430;18.926;2023-09-07T06:33:56;99163.31;;;19.89;63.88
39487;BME280;25173;50.430;18.926;2023-09-07T06:36:57;99168.50;;;20.04;64.09
39487;BME280;25173;50.430;18.926;2023-09-07T06:39:58;99176.25;;;20.15;63.55
39487;BME280;25173;50.430;18.926;2023-09-07T06:42:58;99180.94;;;20.29;63.86
39487;BME280;25173;50.430;18.926;2023-09-07T06:46:10;99172.63;;;20.42;63.83
39487;BME280;25173;50.430;18.926;2023-09-07T06:49:12;99177.56;;;20.54;63.63
39487;BME280;25173;50.430;18.926;2023-09-07T06:52:13;99177.50;;;20.68;63.60
39487;BME280;25173;50.430;18.926;2023-09-07T06:55:16;99179.41;;;20.81;63.74
39487;BME280;25173;50.430;18.926;2023-09-07T06:58:22;99185.00;;;20.98;63.68
39487;BME280;25173;50.430;18.926;2023-09-07T07:01:23;99180.19;;;21.12;64.14
39487;BME280;25173;50.430;18.926;2023-09-07T07:04:24;99185.88;;;21.29;63.85
39487;BME280;25173;50.430;18.926;2023-09-07T07:07:25;99178.75;;;21.46;63.69
39487;BME280;25173;50.430;18.926;2023-09-07T07:10:25;99174.41;;;21.62;63.08
39487;BME280;25173;50.430;18.926;2023-09-07T07:13:26;99184.56;;;21.75;63.22
39487;BME280;25173;50.430;18.926;2023-09-07T07:16:27;99182.97;;;21.91;62.82
39487;BME280;25173;50.430;18.926;2023-09-07T07:19:28;99188.06;;;22.06;62.52
39487;BME280;25173;50.430;18.926;2023-09-07T07:22:29;99180.56;;;22.16;61.75
39487;BME280;25173;50.430;18.926;2023-09-07T07:25:30;99179.59;;;22.29;61.77
39487;BME280;25173;50.430;18.926;2023-09-07T07:28:34;99180.25;;;22.43;61.16
39487;BME280;25173;50.430;18.926;2023-09-07T07:31:34;99187.59;;;22.56;61.04
39487;BME280;25173;50.430;18.926;2023-09-07T07:34:35;99182.84;;;22.65;60.28
39487;BME280;25173;50.430;18.926;2023-09-07T07:37:36;99189.03;;;22.71;59.65
39487;BME280;25173;50.430;18.926;2023-09-07T07:40:39;99191.84;;;22.79;59.70
39487;BME280;25173;50.430;18.926;2023-09-07T07:43:40;99183.19;;;22.90;59.14
39487;BME280;25173;50.430;18.926;2023-09-07T07:46:40;99186.72;;;22.99;59.08
39487;BME280;25173;50.430;18.926;2023-09-07T07:49:41;99186.22;;;23.05;59.11
39487;BME280;25173;50.430;18.926;2023-09-07T07:52:42;99181.13;;;23.16;58.74
39487;BME280;25173;50.430;18.926;2023-09-07T07:55:43;99191.06;;;23.26;58.73
39487;BME280;25173;50.430;18.926;2023-09-07T07:58:47;99194.28;;;23.36;58.42
39487;BME280;25173;50.430;18.926;2023-09-07T08:01:49;99202.94;;;23.43;57.96
39487;BME280;25173;50.430;18.926;2023-09-07T08:04:50;99204.88;;;23.51;57.96
39487;BME280;25173;50.430;18.926;2023-09-07T08:07:51;99204.53;;;23.62;58.56
39487;BME280;25173;50.430;18.926;2023-09-07T08:10:54;99208.91;;;23.71;57.93
39487;BME280;25173;50.430;18.926;2023-09-07T08:13:54;99197.25;;;23.78;57.28
39487;BME280;25173;50.430;18.926;2023-09-07T08:16:56;99200.66;;;23.83;56.85
39487;BME280;25173;50.430;18.926;2023-09-07T08:19:57;99200.59;;;23.92;57.17
39487;BME280;25173;50.430;18.926;2023-09-07T08:23:00;99200.66;;;24.04;57.01
39487;BME280;25173;50.430;18.926;2023-09-07T08:26:04;99207.81;;;24.14;56.52
39487;BME280;25173;50.430;18.926;2023-09-07T08:29:06;99203.03;;;24.23;56.28
39487;BME280;25173;50.430;18.926;2023-09-07T08:32:08;99199.50;;;24.34;56.67
39487;BME280;25173;50.430;18.926;2023-09-07T08:35:12;99192.34;;;24.46;56.52
39487;BME280;25173;50.430;18.926;2023-09-07T08:38:17;99194.25;;;24.54;56.33
39487;BME280;25173;50.430;18.926;2023-09-07T08:41:20;99189.75;;;24.61;55.65
39487;BME280;25173;50.430;18.926;2023-09-07T08:44:21;99199.41;;;24.64;54.76
39487;BME280;25173;50.430;18.926;2023-09-07T08:47:23;99194.78;;;24.68;54.66
39487;BME280;25173;50.430;18.926;2023-09-07T08:50:23;99192.94;;;24.72;54.66
39487;BME280;25173;50.430;18.926;2023-09-07T08:53:24;99195.66;;;24.81;55.06
39487;BME280;25173;50.430;18.926;2023-09-07T08:56:25;99195.56;;;24.89;55.09
39487;BME280;25173;50.430;18.926;2023-09-07T08:59:26;99188.31;;;24.97;53.97
39487;BME280;25173;50.430;18.926;2023-09-07T09:02:26;99198.19;;;25.06;54.30
39487;BME280;25173;50.430;18.926;2023-09-07T09:05:28;99193.91;;;25.09;53.83
39487;BME280;25173;50.430;18.926;2023-09-07T09:09:01;99188.91;;;25.14;53.27
39487;BME280;25173;50.430;18.926;2023-09-07T09:12:12;99196.28;;;25.19;53.53
39487;BME280;25173;50.430;18.926;2023-09-07T09:15:12;99194.75;;;25.22;52.61
39487;BME280;25173;50.430;18.926;2023-09-07T09:18:13;99197.88;;;25.20;52.10
39487;BME280;25173;50.430;18.926;2023-09-07T09:21:14;99198.00;;;25.24;52.21
39487;BME280;25173;50.430;18.926;2023-09-07T09:24:15;99197.78;;;25.29;52.69
39487;BME280;25173;50.430;18.926;2023-09-07T09:27:16;99195.56;;;25.34;52.68
39487;BME280;25173;50.430;18.926;2023-09-07T09:30:17;99196.53;;;25.38;52.26
39487;BME280;25173;50.430;18.926;2023-09-07T09:33:19;99206.63;;;25.43;52.42
39487;BME280;25173;50.430;18.926;2023-09-07T09:36:21;99200.84;;;25.48;52.03
39487;BME280;25173;50.430;18.926;2023-09-07T09:39:25;99189.44;;;25.53;51.78
39487;BME280;25173;50.430;18.926;2023-09-07T09:42:26;99189.72;;;25.60;52.42
39487;BME280;25173;50.430;18.926;2023-09-07T09:45:27;99192.38;;;25.69;51.82
39487;BME280;25173;50.430;18.926;2023-09-07T09:48:28;99191.81;;;25.75;51.62
39487;BME280;25173;50.430;18.926;2023-09-07T09:51:30;99196.44;;;25.83;51.46
39487;BME280;25173;50.430;18.926;2023-09-07T09:54:35;99189.22;;;25.95;51.69
39487;BME280;25173;50.430;18.926;2023-09-07T09:57:36;99182.34;;;26.04;51.55
39487;BME280;25173;50.430;18.926;2023-09-07T10:00:37;99185.47;;;26.15;50.97
39487;BME280;25173;50.430;18.926;2023-09-07T10:03:41;99190.13;;;26.23;50.82
39487;BME280;25173;50.430;18.926;2023-09-07T10:06:58;99185.69;;;26.34;50.86
39487;BME280;25173;50.430;18.926;2023-09-07T10:09:59;99195.34;;;26.37;50.81
39487;BME280;25173;50.430;18.926;2023-09-07T10:13:00;99189.97;;;26.44;50.66
39487;BME280;25173;50.430;18.926;2023-09-07T10:16:01;99191.00;;;26.51;50.20
39487;BME280;25173;50.430;18.926;2023-09-07T10:19:15;99192.03;;;26.59;50.49
39487;BME280;25173;50.430;18.926;2023-09-07T10:22:21;99194.19;;;26.65;50.42
39487;BME280;25173;50.430;18.926;2023-09-07T10:25:23;99185.22;;;26.72;50.22
39487;BME280;25173;50.430;18.926;2023-09-07T10:28:25;99184.13;;;26.77;49.79
39487;BME280;25173;50.430;18.926;2023-09-07T10:31:26;99184.69;;;26.82;49.81
39487;BME280;25173;50.430;18.926;2023-09-07T10:34:37;99172.91;;;26.89;50.19
39487;BME280;25173;50.430;18.926;2023-09-07T10:37:41;99180.94;;;26.90;49.64
39487;BME280;25173;50.430;18.926;2023-09-07T10:40:45;99181.28;;;26.89;49.48
39487;BME280;25173;50.430;18.926;2023-09-07T10:43:50;99177.09;;;26.95;49.67
39487;BME280;25173;50.430;18.926;2023-09-07T10:46:51;99182.88;;;27.02;50.03
39487;BME280;25173;50.430;18.926;2023-09-07T10:49:52;99180.63;;;27.08;50.14
39487;BME280;25173;50.430;18.926;2023-09-07T10:52:53;99170.34;;;27.12;49.20
39487;BME280;25173;50.430;18.926;2023-09-07T10:55:56;99169.53;;;27.11;48.53
39487;BME280;25173;50.430;18.926;2023-09-07T10:58:56;99171.72;;;27.18;48.66
39487;BME280;25173;50.430;18.926;2023-09-07T11:02:04;99169.09;;;27.25;48.09
39487;BME280;25173;50.430;18.926;2023-09-07T11:05:05;99168.91;;;27.33;48.54
39487;BME280;25173;50.430;18.926;2023-09-07T11:08:06;99167.47;;;27.39;48.54
39487;BME280;25173;50.430;18.926;2023-09-07T11:11:08;99173.72;;;27.49;48.39
39487;BME280;25173;50.430;18.926;2023-09-07T11:14:09;99169.03;;;27.53;47.40
39487;BME280;25173;50.430;18.926;2023-09-07T11:17:10;99170.84;;;27.61;47.86
39487;BME280;25173;50.430;18.926;2023-09-07T11:20:11;99163.78;;;27.67;46.95
39487;BME280;25173;50.430;18.926;2023-09-07T11:23:11;99169.19;;;27.75;46.74
39487;BME280;25173;50.430;18.926;2023-09-07T11:26:12;99167.44;;;27.87;46.95
39487;BME280;25173;50.430;18.926;2023-09-07T11:29:16;99174.13;;;27.98;46.68
39487;BME280;25173;50.430;18.926;2023-09-07T11:32:17;99167.31;;;28.14;46.53
39487;BME280;25173;50.430;18.926;2023-09-07T11:35:21;99166.47;;;28.30;46.78
39487;BME280;25173;50.430;18.926;2023-09-07T11:38:22;99160.00;;;28.45;46.68
39487;BME280;25173;50.430;18.926;2023-09-07T11:41:23;99165.75;;;28.52;45.17
39487;BME280;25173;50.430;18.926;2023-09-07T11:44:23;99160.13;;;28.52;45.67
39487;BME280;25173;50.430;18.926;2023-09-07T11:47:24;99152.28;;;28.61;45.01
39487;BME280;25173;50.430;18.926;2023-09-07T11:50:24;99146.81;;;28.68;45.30
39487;BME280;25173;50.430;18.926;2023-09-07T11:53:25;99150.44;;;28.69;44.45
39487;BME280;25173;50.430;18.926;2023-09-07T11:56:25;99151.41;;;28.76;44.88
39487;BME280;25173;50.430;18.926;2023-09-07T11:59:27;99154.06;;;28.88;44.61
39487;BME280;25173;50.430;18.926;2023-09-07T12:02:29;99162.69;;;28.99;44.57
39487;BME280;25173;50.430;18.926;2023-09-07T12:05:30;99159.75;;;29.15;44.87
39487;BME280;25173;50.430;18.926;2023-09-07T12:08:30;99163.78;;;29.37;44.65
39487;BME280;25173;50.430;18.926;2023-09-07T12:11:31;99155.31;;;29.56;44.18
39487;BME280;25173;50.430;18.926;2023-09-07T12:14:32;99148.03;;;29.78;44.51
39487;BME280;25173;50.430;18.926;2023-09-07T12:17:33;99151.78;;;29.89;44.03
39487;BME280;25173;50.430;18.926;2023-09-07T12:20:34;99147.50;;;29.95;43.56
39487;BME280;25173;50.430;18.926;2023-09-07T12:23:37;99140.78;;;30.03;42.90
39487;BME280;25173;50.430;18.926;2023-09-07T12:26:37;99143.59;;;30.03;42.75
39487;BME280;25173;50.430;18.926;2023-09-07T12:29:38;99126.91;;;30.14;42.54
39487;BME280;25173;50.430;18.926;2023-09-07T12:32:39;99136.78;;;30.30;42.46
39487;BME280;25173;50.430;18.926;2023-09-07T12:35:40;99131.44;;;30.52;42.10
39487;BME280;25173;50.430;18.926;2023-09-07T12:38:41;99140.13;;;30.73;42.09
39487;BME280;25173;50.430;18.926;2023-09-07T12:41:41;99131.75;;;30.80;41.19
39487;BME280;25173;50.430;18.926;2023-09-07T12:44:42;99144.22;;;30.79;41.65
39487;BME280;25173;50.430;18.926;2023-09-07T12:47:42;99121.34;;;30.84;41.70
39487;BME280;25173;50.430;18.926;2023-09-07T12:50:43;99123.09;;;30.99;41.52
39487;BME280;25173;50.430;18.926;2023-09-07T12:53:43;99124.91;;;31.14;41.22
39487;BME280;25173;50.430;18.926;2023-09-07T12:56:44;99128.25;;;31.27;40.93
39487;BME280;25173;50.430;18.926;2023-09-07T12:59:45;99120.69;;;31.38;40.76
39487;BME280;25173;50.430;18.926;2023-09-07T13:02:46;99119.56;;;31.46;40.53
39487;BME280;25173;50.430;18.926;2023-09-07T13:05:46;99123.66;;;31.59;39.97
39487;BME280;25173;50.430;18.926;2023-09-07T13:08:48;99113.34;;;31.74;39.73
39487;BME280;25173;50.430;18.926;2023-09-07T13:11:48;99109.78;;;31.84;39.88
39487;BME280;25173;50.430;18.926;2023-09-07T13:14:49;99107.91;;;32.06;39.05
39487;BME280;25173;50.430;18.926;2023-09-07T13:17:49;99107.53;;;32.11;38.64
39487;BME280;25173;50.430;18.926;2023-09-07T13:20:50;99106.38;;;32.16;38.52
39487;BME280;25173;50.430;18.926;2023-09-07T13:23:52;99107.19;;;32.20;38.65
39487;BME280;25173;50.430;18.926;2023-09-07T13:26:52;99112.88;;;32.27;38.35
39487;BME280;25173;50.430;18.926;2023-09-07T13:29:53;99098.34;;;32.25;38.34
39487;BME280;25173;50.430;18.926;2023-09-07T13:32:53;99104.78;;;32.15;38.54
39487;BME280;25173;50.430;18.926;2023-09-07T13:35:54;99100.75;;;32.16;38.06
39487;BME280;25173;50.430;18.926;2023-09-07T13:38:54;99103.56;;;32.16;37.64
39487;BME280;25173;50.430;18.926;2023-09-07T13:41:57;99109.06;;;32.01;38.16
39487;BME280;25173;50.430;18.926;2023-09-07T13:44:57;99096.97;;;31.97;38.15
39487;BME280;25173;50.430;18.926;2023-09-07T13:47:58;99112.69;;;31.98;38.37
39487;BME280;25173;50.430;18.926;2023-09-07T13:50:59;99103.88;;;32.07;38.26
39487;BME280;25173;50.430;18.926;2023-09-07T13:53:59;99097.47;;;32.14;37.93
39487;BME280;25173;50.430;18.926;2023-09-07T13:57:00;99096.34;;;32.22;37.90
39487;BME280;25173;50.430;18.926;2023-09-07T14:00:00;99090.75;;;32.39;37.67
39487;BME280;25173;50.430;18.926;2023-09-07T14:03:01;99091.59;;;32.54;37.91
39487;BME280;25173;50.430;18.926;2023-09-07T14:06:02;99096.47;;;32.57;37.47
39487;BME280;25173;50.430;18.926;2023-09-07T14:09:02;99091.22;;;32.56;37.49
39487;BME280;25173;50.430;18.926;2023-09-07T14:12:03;99092.78;;;32.43;37.70
39487;BME280;25173;50.430;18.926;2023-09-07T14:15:04;99097.22;;;32.40;36.94
39487;BME280;25173;50.430;18.926;2023-09-07T14:18:04;99090.41;;;32.45;37.23
39487;BME280;25173;50.430;18.926;2023-09-07T14:21:05;99085.56;;;32.45;37.39
39487;BME280;25173;50.430;18.926;2023-09-07T14:24:06;99087.13;;;32.39;37.66
39487;BME280;25173;50.430;18.926;2023-09-07T14:27:07;99088.41;;;32.56;37.29
39487;BME280;25173;50.430;18.926;2023-09-07T14:30:09;99092.88;;;32.67;36.61
39487;BME280;25173;50.430;18.926;2023-09-07T14:33:13;99085.25;;;32.79;37.08
39487;BME280;25173;50.430;18.926;2023-09-07T14:36:15;99078.41;;;32.80;36.58
39487;BME280;25173;50.430;18.926;2023-09-07T14:39:16;99088.91;;;32.79;36.53
39487;BME280;25173;50.430;18.926;2023-09-07T14:42:18;99076.00;;;32.85;36.03
39487;BME280;25173;50.430;18.926;2023-09-07T14:45:19;99076.41;;;32.98;35.94
39487;BME280;25173;50.430;18.926;2023-09-07T14:48:20;99072.81;;;32.97;35.58
39487;BME280;25173;50.430;18.926;2023-09-07T14:51:21;99074.81;;;32.83;36.04
39487;BME280;25173;50.430;18.926;2023-09-07T14:54:23;99071.56;;;32.73;36.25
39487;BME280;25173;50.430;18.926;2023-09-07T14:57:23;99080.44;;;32.79;36.58
39487;BME280;25173;50.430;18.926;2023-09-07T15:00:24;99079.19;;;32.76;36.55
39487;BME280;25173;50.430;18.926;2023-09-07T15:03:27;99077.63;;;32.83;36.52
39487;BME280;25173;50.430;18.926;2023-09-07T15:06:28;99066.34;;;32.83;36.14
39487;BME280;25173;50.430;18.926;2023-09-07T15:09:29;99071.16;;;32.68;35.63
39487;BME280;25173;50.430;18.926;2023-09-07T15:12:29;99071.06;;;32.57;35.91
39487;BME280;25173;50.430;18.926;2023-09-07T15:15:31;99067.91;;;32.69;35.47
39487;BME280;25173;50.430;18.926;2023-09-07T15:18:34;99067.94;;;32.84;35.73
39487;BME280;25173;50.430;18.926;2023-09-07T15:21:35;99070.38;;;33.03;35.55
39487;BME280;25173;50.430;18.926;2023-09-07T15:24:35;99060.72;;;33.11;35.63
39487;BME280;25173;50.430;18.926;2023-09-07T15:27:36;99063.97;;;33.27;35.58
39487;BME280;25173;50.430;18.926;2023-09-07T15:30:36;99062.34;;;33.47;35.15
39487;BME280;25173;50.430;18.926;2023-09-07T15:33:37;99065.53;;;33.64;34.95
39487;BME280;25173;50.430;18.926;2023-09-07T15:36:37;99066.34;;;33.68;35.02
39487;BME280;25173;50.430;18.926;2023-09-07T15:39:38;99054.25;;;33.78;34.98
39487;BME280;25173;50.430;18.926;2023-09-07T15:42:39;99068.38;;;33.74;34.39
39487;BME280;25173;50.430;18.926;2023-09-07T15:45:40;99058.69;;;33.79;34.50
39487;BME280;25173;50.430;18.926;2023-09-07T15:48:40;99055.44;;;33.84;34.53
39487;BME280;25173;50.430;18.926;2023-09-07T15:51:41;99060.63;;;34.00;34.56
39487;BME280;25173;50.430;18.926;2023-09-07T15:54:41;99058.97;;;34.09;34.24